sensor_id;sensor_type;location;lat;lon;timestamp;pressure;altitude;pressure_sealevel;temperature;humidity
12785;BME280;6456;42.680;23.260;2022-09-01T00:00:58;94487.44;;;19.17;100.00
12785;BME280;6456;42.680;23.260;2022-09-01T00:03:27;94440.00;;;18.89;100.00
12785;BME280;6456;42.680;23.260;2022-09-01T00:05:55;94426.44;;;18.81;100.00
12785;BME280;6456;42.680;23.260;2022-09-01T00:08:22;94484.50;;;19.19;100.00
12785;BME280;6456;42.680;23.260;2022-09-01T00:10:49;94465.59;;;19.05;100.00
12785;BME280;6456;42.680;23.260;2022-09-01T00:13:16;94465.06;;;19.03;100.00
12785;BME280;6456;42.680;23.260;2022-09-01T00:15:45;94362.16;;;18.37;100.00
12785;BME280;6456;42.680;23.260;2022-09-01T00:18:12;94426.16;;;18.77;100.00
12785;BME280;6456;42.680;23.260;2022-09-01T00:20:40;94417.91;;;18.74;100.00
12785;BME280;6456;42.680;23.260;2022-09-01T00:23:07;94471.97;;;19.09;100.00
12785;BME280;6456;42.680;23.260;2022-09-01T00:25:34;94480.25;;;19.08;100.00
12785;BME280;6456;42.680;23.260;2022-09-01T00:28:01;94476.78;;;19.02;100.00
12785;BME280;6456;42.680;23.260;2022-09-01T00:30:29;94483.19;;;19.01;100.00
12785;BME280;6456;42.680;23.260;2022-09-01T00:32:58;94438.41;;;18.68;100.00
12785;BME280;6456;42.680;23.260;2022-09-01T00:35:25;94448.56;;;18.71;100.00
12785;BME280;6456;42.680;23.260;2022-09-01T00:37:52;94426.66;;;18.49;100.00
12785;BME280;6456;42.680;23.260;2022-09-01T00:40:19;94427.47;;;18.49;100.00
12785;BME280;6456;42.680;23.260;2022-09-01T00:42:46;94403.72;;;18.33;100.00
12785;BME280;6456;42.680;23.260;2022-09-01T00:45:14;94431.19;;;18.43;100.00
12785;BME280;6456;42.680;23.260;2022-09-01T00:47:41;94386.13;;;18.17;100.00
12785;BME280;6456;42.680;23.260;2022-09-01T00:50:12;94433.09;;;18.48;100.00
12785;BME280;6456;42.680;23.260;2022-09-01T00:52:43;94495.97;;;18.84;100.00
12785;BME280;6456;42.680;23.260;2022-09-01T00:55:16;94496.25;;;18.88;100.00
12785;BME280;6456;42.680;23.260;2022-09-01T00:57:44;94425.56;;;18.40;100.00
12785;BME280;6456;42.680;23.260;2022-09-01T01:00:16;94492.78;;;18.82;100.00
12785;BME280;6456;42.680;23.260;2022-09-01T01:02:43;94432.53;;;18.41;100.00
12785;BME280;6456;42.680;23.260;2022-09-01T01:05:13;94450.63;;;18.44;100.00
12785;BME280;6456;42.680;23.260;2022-09-01T01:07:41;94503.72;;;18.76;100.00
12785;BME280;6456;42.680;23.260;2022-09-01T01:10:11;94512.22;;;18.58;100.00
12785;BME280;6456;42.680;23.260;2022-09-01T01:12:41;94509.53;;;18.47;100.00
12785;BME280;6456;42.680;23.260;2022-09-01T01:15:10;94494.53;;;18.26;100.00
12785;BME280;6456;42.680;23.260;2022-09-01T01:17:38;94483.28;;;17.99;100.00
12785;BME280;6456;42.680;23.260;2022-09-01T01:20:06;94465.63;;;17.78;100.00
12785;BME280;6456;42.680;23.260;2022-09-01T01:22:59;94500.06;;;18.00;100.00
12785;BME280;6456;42.680;23.260;2022-09-01T01:25:35;94470.19;;;17.87;100.00
12785;BME280;6456;42.680;23.260;2022-09-01T01:28:05;94487.53;;;18.00;100.00
12785;BME280;6456;42.680;23.260;2022-09-01T01:30:33;94500.91;;;18.10;100.00
12785;BME280;6456;42.680;23.260;2022-09-01T01:33:02;94498.25;;;18.15;100.00
12785;BME280;6456;42.680;23.260;2022-09-01T01:35:29;94496.13;;;18.17;100.00
12785;BME280;6456;42.680;23.260;2022-09-01T01:37:59;94448.38;;;17.90;100.00
12785;BME280;6456;42.680;23.260;2022-09-01T01:40:28;94421.16;;;17.63;100.00
12785;BME280;6456;42.680;23.260;2022-09-01T01:42:57;94500.38;;;18.13;100.00
12785;BME280;6456;42.680;23.260;2022-09-01T01:45:26;94452.03;;;17.74;100.00
12785;BME280;6456;42.680;23.260;2022-09-01T01:47:53;94509.66;;;18.06;100.00
12785;BME280;6456;42.680;23.260;2022-09-01T01:50:22;94499.50;;;17.92;100.00
12785;BME280;6456;42.680;23.260;2022-09-01T01:52:49;94513.41;;;18.10;100.00
12785;BME280;6456;42.680;23.260;2022-09-01T01:55:17;94456.25;;;17.60;100.00
12785;BME280;6456;42.680;23.260;2022-09-01T01:57:44;94516.00;;;17.94;100.00
12785;BME280;6456;42.680;23.260;2022-09-01T02:00:19;94501.06;;;17.83;100.00
12785;BME280;6456;42.680;23.260;2022-09-01T02:02:47;94467.94;;;17.59;100.00
12785;BME280;6456;42.680;23.260;2022-09-01T02:05:18;94531.44;;;17.92;100.00
12785;BME280;6456;42.680;23.260;2022-09-01T02:07:52;94475.84;;;17.49;100.00
12785;BME280;6456;42.680;23.260;2022-09-01T02:10:23;94510.59;;;17.74;100.00
12785;BME280;6456;42.680;23.260;2022-09-01T02:12:50;94475.91;;;17.54;100.00
12785;BME280;6456;42.680;23.260;2022-09-01T02:15:20;94467.81;;;17.39;100.00
12785;BME280;6456;42.680;23.260;2022-09-01T02:17:47;94506.06;;;17.75;100.00
12785;BME280;6456;42.680;23.260;2022-09-01T02:20:15;94468.13;;;17.48;100.00
12785;BME280;6456;42.680;23.260;2022-09-01T02:22:42;94538.09;;;17.90;100.00
12785;BME280;6456;42.680;23.260;2022-09-01T02:25:11;94532.47;;;17.91;100.00
12785;BME280;6456;42.680;23.260;2022-09-01T02:27:41;94537.28;;;17.94;100.00
12785;BME280;6456;42.680;23.260;2022-09-01T02:30:09;94453.19;;;17.42;100.00
12785;BME280;6456;42.680;23.260;2022-09-01T02:32:39;94526.66;;;17.94;100.00
12785;BME280;6456;42.680;23.260;2022-09-01T02:35:07;94462.06;;;17.52;100.00
12785;BME280;6456;42.680;23.260;2022-09-01T02:37:36;94473.81;;;17.66;100.00
12785;BME280;6456;42.680;23.260;2022-09-01T02:40:06;94480.22;;;17.65;100.00
12785;BME280;6456;42.680;23.260;2022-09-01T02:42:38;94473.28;;;17.64;100.00
12785;BME280;6456;42.680;23.260;2022-09-01T02:45:08;94481.31;;;17.74;100.00
12785;BME280;6456;42.680;23.260;2022-09-01T02:47:42;94515.97;;;17.89;100.00
12785;BME280;6456;42.680;23.260;2022-09-01T02:50:12;94501.88;;;17.89;100.00
12785;BME280;6456;42.680;23.260;2022-09-01T02:52:42;94508.78;;;17.85;100.00
12785;BME280;6456;42.680;23.260;2022-09-01T02:55:09;94505.81;;;17.76;100.00
12785;BME280;6456;42.680;23.260;2022-09-01T02:57:37;94471.66;;;17.53;100.00
12785;BME280;6456;42.680;23.260;2022-09-01T03:00:06;94487.09;;;17.61;100.00
12785;BME280;6456;42.680;23.260;2022-09-01T03:02:48;94502.34;;;17.71;100.00
12785;BME280;6456;42.680;23.260;2022-09-01T03:05:18;94508.22;;;17.78;100.00
12785;BME280;6456;42.680;23.260;2022-09-01T03:07:51;94491.88;;;17.59;100.00
12785;BME280;6456;42.680;23.260;2022-09-01T03:10:22;94475.81;;;17.44;100.00
12785;BME280;6456;42.680;23.260;2022-09-01T03:12:53;94472.34;;;17.44;100.00
12785;BME280;6456;42.680;23.260;2022-09-01T03:15:21;94508.16;;;17.68;100.00
12785;BME280;6456;42.680;23.260;2022-09-01T03:17:50;94516.16;;;17.68;100.00
12785;BME280;6456;42.680;23.260;2022-09-01T03:20:17;94502.31;;;17.66;100.00
12785;BME280;6456;42.680;23.260;2022-09-01T03:22:47;94508.94;;;17.63;100.00
12785;BME280;6456;42.680;23.260;2022-09-01T03:25:14;94508.38;;;17.61;100.00
12785;BME280;6456;42.680;23.260;2022-09-01T03:27:41;94514.50;;;17.62;100.00
12785;BME280;6456;42.680;23.260;2022-09-01T03:30:09;94515.56;;;17.56;100.00
12785;BME280;6456;42.680;23.260;2022-09-01T03:32:36;94483.50;;;17.36;100.00
12785;BME280;6456;42.680;23.260;2022-09-01T03:35:05;94461.25;;;17.10;100.00
12785;BME280;6456;42.680;23.260;2022-09-01T03:37:34;94524.59;;;17.55;100.00
12785;BME280;6456;42.680;23.260;2022-09-01T03:40:02;94454.91;;;17.11;100.00
12785;BME280;6456;42.680;23.260;2022-09-01T03:42:30;94510.47;;;17.54;100.00
12785;BME280;6456;42.680;23.260;2022-09-01T03:44:57;94489.03;;;17.29;100.00
12785;BME280;6456;42.680;23.260;2022-09-01T03:47:27;94509.66;;;17.54;100.00
12785;BME280;6456;42.680;23.260;2022-09-01T03:49:54;94403.06;;;16.72;100.00
12785;BME280;6456;42.680;23.260;2022-09-01T03:52:22;94514.63;;;17.40;100.00
12785;BME280;6456;42.680;23.260;2022-09-01T03:54:54;94499.00;;;17.12;100.00
12785;BME280;6456;42.680;23.260;2022-09-01T03:57:24;94443.38;;;16.63;100.00
12785;BME280;6456;42.680;23.260;2022-09-01T03:59:51;94483.34;;;16.79;100.00
12785;BME280;6456;42.680;23.260;2022-09-01T04:02:18;94520.28;;;17.12;100.00
12785;BME280;6456;42.680;23.260;2022-09-01T04:04:47;94518.75;;;17.21;100.00
12785;BME280;6456;42.680;23.260;2022-09-01T04:07:14;94527.44;;;17.11;100.00
12785;BME280;6456;42.680;23.260;2022-09-01T04:09:42;94524.16;;;16.99;100.00
12785;BME280;6456;42.680;23.260;2022-09-01T04:12:10;94465.34;;;16.54;100.00
12785;BME280;6456;42.680;23.260;2022-09-01T04:14:40;94529.38;;;16.84;100.00
12785;BME280;6456;42.680;23.260;2022-09-01T04:17:07;94521.69;;;16.88;100.00
12785;BME280;6456;42.680;23.260;2022-09-01T04:19:51;94508.50;;;16.71;100.00
12785;BME280;6456;42.680;23.260;2022-09-01T04:22:18;94515.75;;;16.76;100.00
12785;BME280;6456;42.680;23.260;2022-09-01T04:24:46;94514.72;;;16.82;100.00
12785;BME280;6456;42.680;23.260;2022-09-01T04:27:14;94520.63;;;16.89;100.00
12785;BME280;6456;42.680;23.260;2022-09-01T04:29:42;94511.91;;;16.93;100.00
12785;BME280;6456;42.680;23.260;2022-09-01T04:32:11;94512.16;;;16.92;100.00
12785;BME280;6456;42.680;23.260;2022-09-01T04:34:38;94450.22;;;16.54;100.00
12785;BME280;6456;42.680;23.260;2022-09-01T04:37:07;94494.50;;;16.76;100.00
12785;BME280;6456;42.680;23.260;2022-09-01T04:39:34;94508.50;;;16.98;100.00
12785;BME280;6456;42.680;23.260;2022-09-01T04:42:05;94517.00;;;17.00;100.00
12785;BME280;6456;42.680;23.260;2022-09-01T04:44:34;94504.72;;;16.94;100.00
12785;BME280;6456;42.680;23.260;2022-09-01T04:47:01;94514.72;;;17.13;100.00
12785;BME280;6456;42.680;23.260;2022-09-01T04:49:35;94512.56;;;17.10;100.00
12785;BME280;6456;42.680;23.260;2022-09-01T04:52:02;94499.94;;;16.91;100.00
12785;BME280;6456;42.680;23.260;2022-09-01T04:54:29;94518.03;;;16.99;100.00
12785;BME280;6456;42.680;23.260;2022-09-01T04:57:00;94510.25;;;16.87;100.00
12785;BME280;6456;42.680;23.260;2022-09-01T04:59:28;94513.81;;;16.98;100.00
12785;BME280;6456;42.680;23.260;2022-09-01T05:01:55;94512.72;;;16.99;100.00
12785;BME280;6456;42.680;23.260;2022-09-01T05:04:26;94516.03;;;17.11;100.00
12785;BME280;6456;42.680;23.260;2022-09-01T05:06:56;94508.00;;;17.01;100.00
12785;BME280;6456;42.680;23.260;2022-09-01T05:09:24;94500.31;;;17.09;100.00
12785;BME280;6456;42.680;23.260;2022-09-01T05:11:51;94505.47;;;17.26;100.00
12785;BME280;6456;42.680;23.260;2022-09-01T05:14:19;94501.53;;;17.33;100.00
12785;BME280;6456;42.680;23.260;2022-09-01T05:16:49;94485.31;;;17.30;100.00
12785;BME280;6456;42.680;23.260;2022-09-01T05:19:18;94478.38;;;17.29;100.00
12785;BME280;6456;42.680;23.260;2022-09-01T05:21:46;94472.84;;;17.36;100.00
12785;BME280;6456;42.680;23.260;2022-09-01T05:24:16;94507.06;;;17.64;100.00
12785;BME280;6456;42.680;23.260;2022-09-01T05:26:44;94510.00;;;17.62;100.00
12785;BME280;6456;42.680;23.260;2022-09-01T05:29:15;94502.41;;;17.44;100.00
12785;BME280;6456;42.680;23.260;2022-09-01T05:31:45;94499.53;;;17.51;100.00
12785;BME280;6456;42.680;23.260;2022-09-01T05:34:14;94503.50;;;17.48;100.00
12785;BME280;6456;42.680;23.260;2022-09-01T05:36:45;94510.41;;;17.49;100.00
12785;BME280;6456;42.680;23.260;2022-09-01T05:39:15;94452.78;;;17.13;100.00
12785;BME280;6456;42.680;23.260;2022-09-01T05:41:42;94509.59;;;17.44;100.00
12785;BME280;6456;42.680;23.260;2022-09-01T05:44:10;94430.94;;;17.06;100.00
12785;BME280;6456;42.680;23.260;2022-09-01T05:46:40;94502.94;;;17.46;100.00
12785;BME280;6456;42.680;23.260;2022-09-01T05:49:09;94499.78;;;17.49;100.00
12785;BME280;6456;42.680;23.260;2022-09-01T05:51:44;94499.78;;;17.49;100.00
12785;BME280;6456;42.680;23.260;2022-09-01T05:54:15;94516.41;;;17.66;100.00
12785;BME280;6456;42.680;23.260;2022-09-01T05:56:43;94521.00;;;17.76;100.00
12785;BME280;6456;42.680;23.260;2022-09-01T05:59:11;94514.00;;;17.65;100.00
12785;BME280;6456;42.680;23.260;2022-09-01T06:01:38;94512.19;;;17.70;100.00
12785;BME280;6456;42.680;23.260;2022-09-01T06:04:06;94510.56;;;17.69;100.00
12785;BME280;6456;42.680;23.260;2022-09-01T06:06:36;94473.25;;;17.59;100.00
12785;BME280;6456;42.680;23.260;2022-09-01T06:09:07;94504.78;;;17.82;100.00
12785;BME280;6456;42.680;23.260;2022-09-01T06:11:35;94501.94;;;18.04;100.00
12785;BME280;6456;42.680;23.260;2022-09-01T06:14:02;94499.81;;;18.06;100.00
12785;BME280;6456;42.680;23.260;2022-09-01T06:16:31;94497.38;;;17.94;100.00
12785;BME280;6456;42.680;23.260;2022-09-01T06:18:58;94504.34;;;18.11;100.00
12785;BME280;6456;42.680;23.260;2022-09-01T06:21:25;94495.06;;;18.18;100.00
12785;BME280;6456;42.680;23.260;2022-09-01T06:23:54;94472.41;;;18.06;100.00
12785;BME280;6456;42.680;23.260;2022-09-01T06:26:24;94476.66;;;18.17;100.00
12785;BME280;6456;42.680;23.260;2022-09-01T06:28:54;94451.34;;;18.04;100.00
12785;BME280;6456;42.680;23.260;2022-09-01T06:31:21;94504.75;;;18.49;100.00
12785;BME280;6456;42.680;23.260;2022-09-01T06:33:50;94500.19;;;18.45;100.00
12785;BME280;6456;42.680;23.260;2022-09-01T06:36:19;94485.81;;;18.46;100.00
12785;BME280;6456;42.680;23.260;2022-09-01T06:38:47;94496.25;;;18.68;100.00
12785;BME280;6456;42.680;23.260;2022-09-01T06:41:14;94502.94;;;18.80;100.00
12785;BME280;6456;42.680;23.260;2022-09-01T06:43:45;94441.88;;;18.53;100.00
12785;BME280;6456;42.680;23.260;2022-09-01T06:46:12;94497.06;;;18.93;100.00
12785;BME280;6456;42.680;23.260;2022-09-01T06:48:39;94492.00;;;19.02;100.00
12785;BME280;6456;42.680;23.260;2022-09-01T06:51:11;94482.13;;;19.02;100.00
12785;BME280;6456;42.680;23.260;2022-09-01T06:53:38;94489.59;;;19.05;100.00
12785;BME280;6456;42.680;23.260;2022-09-01T06:56:06;94492.78;;;19.12;100.00
12785;BME280;6456;42.680;23.260;2022-09-01T06:58:38;94482.66;;;19.04;100.00
12785;BME280;6456;42.680;23.260;2022-09-01T07:01:09;94475.19;;;19.01;100.00
12785;BME280;6456;42.680;23.260;2022-09-01T07:03:41;94489.06;;;19.03;100.00
12785;BME280;6456;42.680;23.260;2022-09-01T07:06:08;94495.47;;;19.07;100.00
12785;BME280;6456;42.680;23.260;2022-09-01T07:08:35;94493.31;;;19.14;100.00
12785;BME280;6456;42.680;23.260;2022-09-01T07:11:04;94481.59;;;19.15;100.00
12785;BME280;6456;42.680;23.260;2022-09-01T07:13:33;94493.56;;;19.28;100.00
12785;BME280;6456;42.680;23.260;2022-09-01T07:16:01;94488.78;;;19.40;100.00
12785;BME280;6456;42.680;23.260;2022-09-01T07:18:31;94447.97;;;19.14;100.00
12785;BME280;6456;42.680;23.260;2022-09-01T07:20:59;94492.22;;;19.56;100.00
12785;BME280;6456;42.680;23.260;2022-09-01T07:23:31;94475.16;;;19.47;100.00
12785;BME280;6456;42.680;23.260;2022-09-01T07:25:59;94492.44;;;19.69;100.00
12785;BME280;6456;42.680;23.260;2022-09-01T07:28:26;94495.06;;;19.79;100.00
12785;BME280;6456;42.680;23.260;2022-09-01T07:30:57;94492.13;;;19.86;100.00
12785;BME280;6456;42.680;23.260;2022-09-01T07:33:25;94476.66;;;19.83;100.00
12785;BME280;6456;42.680;23.260;2022-09-01T07:35:56;94477.97;;;19.86;100.00
12785;BME280;6456;42.680;23.260;2022-09-01T07:38:24;94454.75;;;19.86;100.00
12785;BME280;6456;42.680;23.260;2022-09-01T07:40:53;94489.59;;;20.15;100.00
12785;BME280;6456;42.680;23.260;2022-09-01T07:43:22;94448.34;;;19.77;100.00
12785;BME280;6456;42.680;23.260;2022-09-01T07:45:51;94474.94;;;20.07;100.00
12785;BME280;6456;42.680;23.260;2022-09-01T07:48:22;94488.78;;;20.24;100.00
12785;BME280;6456;42.680;23.260;2022-09-01T07:50:51;94491.44;;;20.19;100.00
12785;BME280;6456;42.680;23.260;2022-09-01T07:53:22;94451.25;;;19.91;100.00
12785;BME280;6456;42.680;23.260;2022-09-01T07:55:50;94445.09;;;19.90;100.00
12785;BME280;6456;42.680;23.260;2022-09-01T07:58:19;94502.91;;;20.30;100.00
12785;BME280;6456;42.680;23.260;2022-09-01T08:00:47;94463.16;;;20.13;100.00
12785;BME280;6456;42.680;23.260;2022-09-01T08:03:15;94489.50;;;20.40;100.00
12785;BME280;6456;42.680;23.260;2022-09-01T08:05:42;94494.56;;;20.47;100.00
12785;BME280;6456;42.680;23.260;2022-09-01T08:08:09;94501.44;;;20.53;100.00
12785;BME280;6456;42.680;23.260;2022-09-01T08:10:41;94493.88;;;20.65;100.00
12785;BME280;6456;42.680;23.260;2022-09-01T08:13:10;94494.38;;;20.72;100.00
12785;BME280;6456;42.680;23.260;2022-09-01T08:15:37;94487.53;;;20.89;100.00
12785;BME280;6456;42.680;23.260;2022-09-01T08:18:04;94495.22;;;21.06;100.00
12785;BME280;6456;42.680;23.260;2022-09-01T08:20:32;94495.13;;;21.16;100.00
12785;BME280;6456;42.680;23.260;2022-09-01T08:23:02;94470.69;;;20.94;100.00
12785;BME280;6456;42.680;23.260;2022-09-01T08:25:31;94432.56;;;20.78;100.00
12785;BME280;6456;42.680;23.260;2022-09-01T08:28:00;94481.84;;;21.01;100.00
12785;BME280;6456;42.680;23.260;2022-09-01T08:30:28;94479.03;;;21.21;100.00
12785;BME280;6456;42.680;23.260;2022-09-01T08:32:57;94486.63;;;21.38;100.00
12785;BME280;6456;42.680;23.260;2022-09-01T08:35:25;94467.72;;;21.29;100.00
12785;BME280;6456;42.680;23.260;2022-09-01T08:37:54;94443.19;;;21.17;100.00
12785;BME280;6456;42.680;23.260;2022-09-01T08:40:21;94484.00;;;21.61;100.00
12785;BME280;6456;42.680;23.260;2022-09-01T08:42:56;94472.25;;;21.57;100.00
12785;BME280;6456;42.680;23.260;2022-09-01T08:45:31;94454.59;;;21.56;100.00
12785;BME280;6456;42.680;23.260;2022-09-01T08:48:05;94455.16;;;21.53;100.00
12785;BME280;6456;42.680;23.260;2022-09-01T08:50:36;94414.94;;;21.35;100.00
12785;BME280;6456;42.680;23.260;2022-09-01T08:53:07;94416.94;;;21.48;100.00
12785;BME280;6456;42.680;23.260;2022-09-01T08:55:40;94456.84;;;21.97;100.00
12785;BME280;6456;42.680;23.260;2022-09-01T08:58:10;94450.00;;;22.09;100.00
12785;BME280;6456;42.680;23.260;2022-09-01T09:00:41;94453.53;;;22.23;100.00
12785;BME280;6456;42.680;23.260;2022-09-01T09:03:17;94440.38;;;22.27;99.90
12785;BME280;6456;42.680;23.260;2022-09-01T09:06:06;94447.19;;;22.38;95.55
12785;BME280;6456;42.680;23.260;2022-09-01T09:08:50;94428.97;;;22.35;95.90
12785;BME280;6456;42.680;23.260;2022-09-01T09:11:34;94445.28;;;22.57;94.18
12785;BME280;6456;42.680;23.260;2022-09-01T09:14:12;94378.34;;;22.33;95.18
12785;BME280;6456;42.680;23.260;2022-09-01T09:16:46;94437.63;;;22.69;94.00
12785;BME280;6456;42.680;23.260;2022-09-01T09:19:18;94428.81;;;22.82;92.96
12785;BME280;6456;42.680;23.260;2022-09-01T09:21:49;94439.94;;;23.08;92.43
12785;BME280;6456;42.680;23.260;2022-09-01T09:24:22;94433.59;;;23.18;88.40
12785;BME280;6456;42.680;23.260;2022-09-01T09:26:50;94430.59;;;23.06;86.71
12785;BME280;6456;42.680;23.260;2022-09-01T09:29:18;94429.59;;;23.02;81.90
12785;BME280;6456;42.680;23.260;2022-09-01T09:31:48;94423.09;;;23.21;84.08
12785;BME280;6456;42.680;23.260;2022-09-01T09:34:18;94419.91;;;23.19;83.25
12785;BME280;6456;42.680;23.260;2022-09-01T09:36:54;94427.47;;;23.31;83.75
12785;BME280;6456;42.680;23.260;2022-09-01T09:39:21;94421.50;;;23.34;85.50
12785;BME280;6456;42.680;23.260;2022-09-01T09:42:04;94418.84;;;23.47;86.23
12785;BME280;6456;42.680;23.260;2022-09-01T09:44:39;94417.81;;;23.62;85.63
12785;BME280;6456;42.680;23.260;2022-09-01T09:47:09;94415.41;;;23.74;82.38
12785;BME280;6456;42.680;23.260;2022-09-01T09:49:36;94418.69;;;23.85;81.12
12785;BME280;6456;42.680;23.260;2022-09-01T09:52:16;94392.91;;;23.70;81.17
12785;BME280;6456;42.680;23.260;2022-09-01T09:55:17;94396.28;;;23.89;78.95
12785;BME280;6456;42.680;23.260;2022-09-01T09:57:47;94403.03;;;24.00;79.27
12785;BME280;6456;42.680;23.260;2022-09-01T10:00:19;94409.00;;;24.25;78.44
12785;BME280;6456;42.680;23.260;2022-09-01T10:02:54;94374.47;;;24.18;76.87
12785;BME280;6456;42.680;23.260;2022-09-01T10:05:37;94405.13;;;24.53;75.53
12785;BME280;6456;42.680;23.260;2022-09-01T10:08:07;94389.63;;;24.50;76.21
12785;BME280;6456;42.680;23.260;2022-09-01T10:10:40;94404.00;;;24.67;77.80
12785;BME280;6456;42.680;23.260;2022-09-01T10:13:10;94405.28;;;24.70;75.58
12785;BME280;6456;42.680;23.260;2022-09-01T10:15:40;94401.59;;;24.66;70.39
12785;BME280;6456;42.680;23.260;2022-09-01T10:18:13;94393.72;;;24.69;68.33
12785;BME280;6456;42.680;23.260;2022-09-01T10:20:45;94387.91;;;24.76;69.20
12785;BME280;6456;42.680;23.260;2022-09-01T10:23:14;94364.47;;;24.76;68.59
12785;BME280;6456;42.680;23.260;2022-09-01T10:25:43;94398.31;;;24.91;69.96
12785;BME280;6456;42.680;23.260;2022-09-01T10:28:14;94386.47;;;24.92;68.77
12785;BME280;6456;42.680;23.260;2022-09-01T10:30:44;94389.31;;;24.96;69.77
12785;BME280;6456;42.680;23.260;2022-09-01T10:33:15;94344.94;;;24.84;69.28
12785;BME280;6456;42.680;23.260;2022-09-01T10:35:44;94375.81;;;25.09;67.25
12785;BME280;6456;42.680;23.260;2022-09-01T10:38:15;94382.94;;;25.14;68.92
12785;BME280;6456;42.680;23.260;2022-09-01T10:40:44;94293.84;;;24.71;67.71
12785;BME280;6456;42.680;23.260;2022-09-01T10:43:38;94372.09;;;25.27;66.89
12785;BME280;6456;42.680;23.260;2022-09-01T10:46:09;94357.03;;;25.26;65.44
12785;BME280;6456;42.680;23.260;2022-09-01T10:48:57;94353.88;;;25.33;65.74
12785;BME280;6456;42.680;23.260;2022-09-01T10:51:44;94363.91;;;25.41;64.41
12785;BME280;6456;42.680;23.260;2022-09-01T10:54:48;94365.41;;;25.47;65.67
12785;BME280;6456;42.680;23.260;2022-09-01T10:57:33;94344.38;;;25.35;66.27
12785;BME280;6456;42.680;23.260;2022-09-01T11:00:42;94359.59;;;25.62;64.29
12785;BME280;6456;42.680;23.260;2022-09-01T11:03:38;94360.91;;;25.82;65.49
12785;BME280;6456;42.680;23.260;2022-09-01T11:09:20;94351.81;;;26.26;68.70
12785;BME280;6456;42.680;23.260;2022-09-01T11:11:58;94363.56;;;26.38;68.09
12785;BME280;6456;42.680;23.260;2022-09-01T11:14:29;94341.50;;;26.53;66.88
12785;BME280;6456;42.680;23.260;2022-09-01T11:17:16;94350.38;;;26.71;66.78
12785;BME280;6456;42.680;23.260;2022-09-01T11:19:44;94348.94;;;26.73;64.39
12785;BME280;6456;42.680;23.260;2022-09-01T11:22:26;94322.28;;;26.72;64.74
12785;BME280;6456;42.680;23.260;2022-09-01T11:25:36;94333.47;;;27.08;64.06
12785;BME280;6456;42.680;23.260;2022-09-01T11:31:25;94324.09;;;27.23;64.23
12785;BME280;6456;42.680;23.260;2022-09-01T11:34:09;94319.63;;;27.27;62.82
12785;BME280;6456;42.680;23.260;2022-09-01T11:36:46;94324.03;;;27.40;61.34
12785;BME280;6456;42.680;23.260;2022-09-01T11:39:29;94318.47;;;27.45;61.06
12785;BME280;6456;42.680;23.260;2022-09-01T11:42:00;94299.41;;;27.33;61.62
12785;BME280;6456;42.680;23.260;2022-09-01T11:44:35;94301.16;;;27.29;61.51
12785;BME280;6456;42.680;23.260;2022-09-01T11:47:08;94234.63;;;26.87;60.62
12785;BME280;6456;42.680;23.260;2022-09-01T11:49:38;94282.00;;;27.13;60.56
12785;BME280;6456;42.680;23.260;2022-09-01T11:52:07;94290.72;;;27.19;60.78
12785;BME280;6456;42.680;23.260;2022-09-01T11:54:42;94299.28;;;27.21;61.31
12785;BME280;6456;42.680;23.260;2022-09-01T11:57:30;94288.28;;;27.34;61.24
12785;BME280;6456;42.680;23.260;2022-09-01T11:59:59;94291.13;;;27.38;61.15
12785;BME280;6456;42.680;23.260;2022-09-01T12:02:28;94290.13;;;27.51;60.14
12785;BME280;6456;42.680;23.260;2022-09-01T12:04:58;94282.16;;;27.55;59.64
12785;BME280;6456;42.680;23.260;2022-09-01T12:07:37;94279.22;;;27.39;58.22
12785;BME280;6456;42.680;23.260;2022-09-01T12:10:14;94268.25;;;27.35;59.81
12785;BME280;6456;42.680;23.260;2022-09-01T12:12:46;94284.81;;;27.63;58.67
12785;BME280;6456;42.680;23.260;2022-09-01T12:15:19;94272.53;;;27.66;58.75
12785;BME280;6456;42.680;23.260;2022-09-01T12:17:46;94274.97;;;27.59;58.30
12785;BME280;6456;42.680;23.260;2022-09-01T12:20:21;94234.75;;;27.28;57.40
12785;BME280;6456;42.680;23.260;2022-09-01T12:22:49;94277.22;;;27.57;57.25
12785;BME280;6456;42.680;23.260;2022-09-01T12:25:21;94269.00;;;27.74;58.73
12785;BME280;6456;42.680;23.260;2022-09-01T12:27:50;94278.38;;;27.76;57.82
12785;BME280;6456;42.680;23.260;2022-09-01T12:30:18;94275.16;;;27.83;57.41
12785;BME280;6456;42.680;23.260;2022-09-01T12:32:46;94273.97;;;27.92;57.29
12785;BME280;6456;42.680;23.260;2022-09-01T12:35:15;94264.09;;;27.96;57.08
12785;BME280;6456;42.680;23.260;2022-09-01T12:37:43;94271.72;;;28.03;55.75
12785;BME280;6456;42.680;23.260;2022-09-01T12:40:23;94267.16;;;28.16;56.68
12785;BME280;6456;42.680;23.260;2022-09-01T12:42:52;94267.81;;;28.13;58.93
12785;BME280;6456;42.680;23.260;2022-09-01T12:45:39;94274.88;;;28.26;59.62
12785;BME280;6456;42.680;23.260;2022-09-01T12:48:21;94250.59;;;28.17;59.95
12785;BME280;6456;42.680;23.260;2022-09-01T12:50:50;94248.47;;;28.23;58.44
12785;BME280;6456;42.680;23.260;2022-09-01T12:53:21;94250.59;;;28.17;58.75
12785;BME280;6456;42.680;23.260;2022-09-01T12:58:40;94269.81;;;28.57;60.40
12785;BME280;6456;42.680;23.260;2022-09-01T13:01:23;94243.50;;;28.45;60.08
12785;BME280;6456;42.680;23.260;2022-09-01T13:04:10;94272.97;;;28.59;59.22
12785;BME280;6456;42.680;23.260;2022-09-01T13:06:37;94256.47;;;28.52;59.46
12785;BME280;6456;42.680;23.260;2022-09-01T13:09:05;94242.25;;;28.43;58.84
12785;BME280;6456;42.680;23.260;2022-09-01T13:11:32;94235.38;;;28.45;58.07
12785;BME280;6456;42.680;23.260;2022-09-01T13:14:01;94227.50;;;28.20;59.10
12785;BME280;6456;42.680;23.260;2022-09-01T13:16:27;94244.03;;;28.39;59.68
12785;BME280;6456;42.680;23.260;2022-09-01T13:18:54;94193.91;;;28.21;59.57
12785;BME280;6456;42.680;23.260;2022-09-01T13:21:24;94193.53;;;28.43;61.10